sensor_id;sensor_type;location;lat;lon;timestamp;P1;durP1;ratioP1;P2;durP2;ratioP2
58089;SDS011;45149;50.976;6.120;2022-07-29T00:00:10;4.50;;;2.10;;
58089;SDS011;45149;50.976;6.120;2022-07-29T00:02:37;5.47;;;2.00;;
58089;SDS011;45149;50.976;6.120;2022-07-29T00:05:03;5.55;;;2.20;;
58089;SDS011;45149;50.976;6.120;2022-07-29T00:07:29;4.38;;;1.95;;
58089;SDS011;45149;50.976;6.120;2022-07-29T00:09:55;6.20;;;2.33;;
58089;SDS011;45149;50.976;6.120;2022-07-29T00:12:22;5.78;;;2.15;;
58089;SDS011;45149;50.976;6.120;2022-07-29T00:14:48;5.38;;;2.10;;
58089;SDS011;45149;50.976;6.120;2022-07-29T00:17:13;4.97;;;1.80;;
58089;SDS011;45149;50.976;6.120;2022-07-29T00:19:39;7.45;;;1.98;;
58089;SDS011;45149;50.976;6.120;2022-07-29T00:22:04;6.00;;;2.10;;
58089;SDS011;45149;50.976;6.120;2022-07-29T00:24:30;4.13;;;1.95;;
58089;SDS011;45149;50.976;6.120;2022-07-29T00:26:55;7.32;;;2.40;;
58089;SDS011;45149;50.976;6.120;2022-07-29T00:29:20;4.57;;;2.00;;
58089;SDS011;45149;50.976;6.120;2022-07-29T00:31:46;4.30;;;1.80;;
58089;SDS011;45149;50.976;6.120;2022-07-29T00:34:11;5.32;;;2.00;;
58089;SDS011;45149;50.976;6.120;2022-07-29T00:36:55;7.70;;;2.20;;
58089;SDS011;45149;50.976;6.120;2022-07-29T00:39:21;5.45;;;2.13;;
58089;SDS011;45149;50.976;6.120;2022-07-29T00:41:46;5.55;;;1.80;;
58089;SDS011;45149;50.976;6.120;2022-07-29T00:44:11;4.93;;;1.98;;
58089;SDS011;45149;50.976;6.120;2022-07-29T00:46:37;7.10;;;2.22;;
58089;SDS011;45149;50.976;6.120;2022-07-29T00:49:02;5.97;;;1.85;;
58089;SDS011;45149;50.976;6.120;2022-07-29T00:51:28;7.32;;;2.50;;
58089;SDS011;45149;50.976;6.120;2022-07-29T00:53:53;9.40;;;2.90;;
58089;SDS011;45149;50.976;6.120;2022-07-29T00:56:19;11.30;;;3.20;;
58089;SDS011;45149;50.976;6.120;2022-07-29T00:58:45;9.13;;;3.00;;
58089;SDS011;45149;50.976;6.120;2022-07-29T01:01:13;8.23;;;3.03;;
58089;SDS011;45149;50.976;6.120;2022-07-29T01:03:38;10.10;;;3.85;;
58089;SDS011;45149;50.976;6.120;2022-07-29T01:06:04;7.38;;;3.75;;
58089;SDS011;45149;50.976;6.120;2022-07-29T01:08:29;8.00;;;4.10;;
58089;SDS011;45149;50.976;6.120;2022-07-29T01:10:57;7.40;;;3.45;;
58089;SDS011;45149;50.976;6.120;2022-07-29T01:13:24;8.80;;;3.95;;
58089;SDS011;45149;50.976;6.120;2022-07-29T01:15:51;8.05;;;3.72;;
58089;SDS011;45149;50.976;6.120;2022-07-29T01:18:32;7.88;;;3.58;;
58089;SDS011;45149;50.976;6.120;2022-07-29T01:29:02;8.13;;;3.95;;
58089;SDS011;45149;50.976;6.120;2022-07-29T01:31:33;9.07;;;3.60;;
58089;SDS011;45149;50.976;6.120;2022-07-29T01:34:07;10.43;;;4.10;;
58089;SDS011;45149;50.976;6.120;2022-07-29T01:39:21;10.52;;;3.70;;
58089;SDS011;45149;50.976;6.120;2022-07-29T01:41:55;6.72;;;3.65;;
58089;SDS011;45149;50.976;6.120;2022-07-29T01:44:33;5.93;;;3.70;;
58089;SDS011;45149;50.976;6.120;2022-07-29T01:47:05;7.25;;;3.47;;
58089;SDS011;45149;50.976;6.120;2022-07-29T01:49:39;7.25;;;3.20;;
58089;SDS011;45149;50.976;6.120;2022-07-29T01:52:13;6.80;;;3.40;;
58089;SDS011;45149;50.976;6.120;2022-07-29T01:54:45;7.75;;;3.58;;
58089;SDS011;45149;50.976;6.120;2022-07-29T01:57:16;6.32;;;3.42;;
58089;SDS011;45149;50.976;6.120;2022-07-29T01:59:45;5.72;;;3.40;;
58089;SDS011;45149;50.976;6.120;2022-07-29T02:02:12;9.98;;;3.90;;
58089;SDS011;45149;50.976;6.120;2022-07-29T02:04:40;5.47;;;3.40;;
58089;SDS011;45149;50.976;6.120;2022-07-29T02:07:07;7.80;;;3.65;;
58089;SDS011;45149;50.976;6.120;2022-07-29T02:09:38;8.57;;;3.75;;
58089;SDS011;45149;50.976;6.120;2022-07-29T02:12:05;9.85;;;3.60;;
58089;SDS011;45149;50.976;6.120;2022-07-29T02:14:34;7.43;;;3.75;;
58089;SDS011;45149;50.976;6.120;2022-07-29T02:17:03;9.82;;;4.65;;
58089;SDS011;45149;50.976;6.120;2022-07-29T02:19:29;6.47;;;4.32;;
58089;SDS011;45149;50.976;6.120;2022-07-29T02:21:57;8.55;;;4.00;;
58089;SDS011;45149;50.976;6.120;2022-07-29T02:24:24;6.28;;;3.63;;
58089;SDS011;45149;50.976;6.120;2022-07-29T02:26:51;7.28;;;3.55;;
58089;SDS011;45149;50.976;6.120;2022-07-29T02:29:22;8.32;;;3.22;;
58089;SDS011;45149;50.976;6.120;2022-07-29T02:31:50;5.40;;;3.10;;
58089;SDS011;45149;50.976;6.120;2022-07-29T02:34:17;5.57;;;3.60;;
58089;SDS011;45149;50.976;6.120;2022-07-29T02:36:44;9.27;;;3.90;;
58089;SDS011;45149;50.976;6.120;2022-07-29T02:39:10;5.05;;;3.70;;
58089;SDS011;45149;50.976;6.120;2022-07-29T02:41:47;6.55;;;3.72;;
58089;SDS011;45149;50.976;6.120;2022-07-29T02:44:20;7.35;;;4.10;;
58089;SDS011;45149;50.976;6.120;2022-07-29T02:46:50;6.90;;;3.85;;
58089;SDS011;45149;50.976;6.120;2022-07-29T02:52:18;6.78;;;3.67;;
58089;SDS011;45149;50.976;6.120;2022-07-29T02:54:51;7.88;;;4.30;;
58089;SDS011;45149;50.976;6.120;2022-07-29T02:57:28;7.20;;;4.40;;
58089;SDS011;45149;50.976;6.120;2022-07-29T02:59:59;9.20;;;4.03;;
58089;SDS011;45149;50.976;6.120;2022-07-29T03:02:31;7.15;;;4.20;;
58089;SDS011;45149;50.976;6.120;2022-07-29T03:05:00;6.93;;;4.47;;
58089;SDS011;45149;50.976;6.120;2022-07-29T03:07:27;9.50;;;4.50;;
58089;SDS011;45149;50.976;6.120;2022-07-29T03:09:53;6.15;;;3.90;;
58089;SDS011;45149;50.976;6.120;2022-07-29T03:12:19;8.80;;;3.83;;
58089;SDS011;45149;50.976;6.120;2022-07-29T03:14:45;8.93;;;3.95;;
58089;SDS011;45149;50.976;6.120;2022-07-29T03:17:11;8.68;;;3.88;;
58089;SDS011;45149;50.976;6.120;2022-07-29T03:19:37;6.22;;;3.58;;
58089;SDS011;45149;50.976;6.120;2022-07-29T03:22:04;6.10;;;3.65;;
58089;SDS011;45149;50.976;6.120;2022-07-29T03:24:34;7.82;;;4.07;;
58089;SDS011;45149;50.976;6.120;2022-07-29T03:27:01;8.60;;;4.28;;
58089;SDS011;45149;50.976;6.120;2022-07-29T03:29:26;8.07;;;3.78;;
58089;SDS011;45149;50.976;6.120;2022-07-29T03:31:53;6.75;;;4.00;;
58089;SDS011;45149;50.976;6.120;2022-07-29T03:34:19;7.35;;;3.80;;
58089;SDS011;45149;50.976;6.120;2022-07-29T03:36:44;6.20;;;3.45;;
58089;SDS011;45149;50.976;6.120;2022-07-29T03:39:09;7.53;;;3.70;;
58089;SDS011;45149;50.976;6.120;2022-07-29T03:41:37;7.22;;;4.20;;
58089;SDS011;45149;50.976;6.120;2022-07-29T03:44:04;5.32;;;3.85;;
58089;SDS011;45149;50.976;6.120;2022-07-29T03:46:32;9.98;;;4.10;;
58089;SDS011;45149;50.976;6.120;2022-07-29T03:49:01;7.22;;;3.80;;
58089;SDS011;45149;50.976;6.120;2022-07-29T03:51:29;7.97;;;4.20;;
58089;SDS011;45149;50.976;6.120;2022-07-29T03:53:55;8.85;;;4.30;;
58089;SDS011;45149;50.976;6.120;2022-07-29T03:56:21;6.97;;;3.83;;
58089;SDS011;45149;50.976;6.120;2022-07-29T03:58:48;6.85;;;4.45;;
58089;SDS011;45149;50.976;6.120;2022-07-29T04:01:16;6.53;;;4.20;;
58089;SDS011;45149;50.976;6.120;2022-07-29T04:03:43;5.80;;;3.92;;
58089;SDS011;45149;50.976;6.120;2022-07-29T04:06:10;8.90;;;4.43;;
58089;SDS011;45149;50.976;6.120;2022-07-29T04:08:36;8.18;;;4.93;;
58089;SDS011;45149;50.976;6.120;2022-07-29T04:11:02;6.95;;;4.22;;
58089;SDS011;45149;50.976;6.120;2022-07-29T04:13:28;6.28;;;4.65;;
58089;SDS011;45149;50.976;6.120;2022-07-29T04:15:54;7.88;;;4.75;;
58089;SDS011;45149;50.976;6.120;2022-07-29T04:18:19;10.25;;;4.40;;
58089;SDS011;45149;50.976;6.120;2022-07-29T04:20:44;6.80;;;4.15;;
58089;SDS011;45149;50.976;6.120;2022-07-29T04:23:10;7.03;;;4.30;;
58089;SDS011;45149;50.976;6.120;2022-07-29T04:25:39;8.52;;;4.40;;
58089;SDS011;45149;50.976;6.120;2022-07-29T04:28:05;9.35;;;4.45;;
58089;SDS011;45149;50.976;6.120;2022-07-29T04:30:31;6.75;;;3.92;;
58089;SDS011;45149;50.976;6.120;2022-07-29T04:32:57;6.00;;;3.90;;
58089;SDS011;45149;50.976;6.120;2022-07-29T04:35:25;6.75;;;4.32;;
58089;SDS011;45149;50.976;6.120;2022-07-29T04:37:51;10.88;;;4.57;;
58089;SDS011;45149;50.976;6.120;2022-07-29T04:40:16;10.02;;;4.47;;
58089;SDS011;45149;50.976;6.120;2022-07-29T04:42:42;9.75;;;4.68;;
58089;SDS011;45149;50.976;6.120;2022-07-29T04:45:07;6.78;;;4.05;;
58089;SDS011;45149;50.976;6.120;2022-07-29T04:47:33;6.75;;;4.25;;
58089;SDS011;45149;50.976;6.120;2022-07-29T04:49:58;7.38;;;4.20;;
58089;SDS011;45149;50.976;6.120;2022-07-29T04:52:24;7.45;;;3.90;;
58089;SDS011;45149;50.976;6.120;2022-07-29T04:54:49;8.88;;;4.65;;
58089;SDS011;45149;50.976;6.120;2022-07-29T04:57:14;10.00;;;4.55;;
58089;SDS011;45149;50.976;6.120;2022-07-29T04:59:40;8.55;;;4.85;;
58089;SDS011;45149;50.976;6.120;2022-07-29T05:02:05;11.30;;;4.80;;
58089;SDS011;45149;50.976;6.120;2022-07-29T05:04:30;9.45;;;4.97;;
58089;SDS011;45149;50.976;6.120;2022-07-29T05:06:56;7.55;;;4.55;;
58089;SDS011;45149;50.976;6.120;2022-07-29T05:09:21;5.70;;;4.15;;
58089;SDS011;45149;50.976;6.120;2022-07-29T05:11:47;8.48;;;4.68;;
58089;SDS011;45149;50.976;6.120;2022-07-29T05:14:12;7.80;;;4.13;;
58089;SDS011;45149;50.976;6.120;2022-07-29T05:16:37;7.93;;;4.63;;
58089;SDS011;45149;50.976;6.120;2022-07-29T05:19:04;7.30;;;4.68;;
58089;SDS011;45149;50.976;6.120;2022-07-29T05:21:30;6.88;;;4.20;;
58089;SDS011;45149;50.976;6.120;2022-07-29T05:23:55;10.15;;;4.53;;
58089;SDS011;45149;50.976;6.120;2022-07-29T05:26:21;6.45;;;4.55;;
58089;SDS011;45149;50.976;6.120;2022-07-29T05:28:46;6.47;;;4.00;;
58089;SDS011;45149;50.976;6.120;2022-07-29T05:31:11;9.20;;;4.60;;
58089;SDS011;45149;50.976;6.120;2022-07-29T05:33:39;8.90;;;4.57;;
58089;SDS011;45149;50.976;6.120;2022-07-29T05:36:05;6.47;;;4.22;;
58089;SDS011;45149;50.976;6.120;2022-07-29T05:38:31;7.57;;;5.10;;
58089;SDS011;45149;50.976;6.120;2022-07-29T05:40:57;7.07;;;4.45;;
58089;SDS011;45149;50.976;6.120;2022-07-29T05:43:24;9.52;;;5.57;;
58089;SDS011;45149;50.976;6.120;2022-07-29T05:45:49;7.28;;;4.03;;
58089;SDS011;45149;50.976;6.120;2022-07-29T05:48:14;9.15;;;4.25;;
58089;SDS011;45149;50.976;6.120;2022-07-29T05:50:40;6.35;;;4.15;;
58089;SDS011;45149;50.976;6.120;2022-07-29T05:53:05;8.95;;;5.10;;
58089;SDS011;45149;50.976;6.120;2022-07-29T05:55:30;7.53;;;4.30;;
58089;SDS011;45149;50.976;6.120;2022-07-29T05:57:56;7.30;;;4.13;;
58089;SDS011;45149;50.976;6.120;2022-07-29T06:00:22;7.45;;;4.13;;
58089;SDS011;45149;50.976;6.120;2022-07-29T06:02:47;7.65;;;4.50;;
58089;SDS011;45149;50.976;6.120;2022-07-29T06:05:12;5.82;;;3.78;;
58089;SDS011;45149;50.976;6.120;2022-07-29T06:07:38;7.95;;;4.07;;
58089;SDS011;45149;50.976;6.120;2022-07-29T06:10:04;9.48;;;4.72;;
58089;SDS011;45149;50.976;6.120;2022-07-29T06:12:29;7.75;;;4.38;;
58089;SDS011;45149;50.976;6.120;2022-07-29T06:14:55;9.13;;;4.43;;
58089;SDS011;45149;50.976;6.120;2022-07-29T06:17:21;8.73;;;4.45;;
58089;SDS011;45149;50.976;6.120;2022-07-29T06:19:46;8.20;;;4.32;;
58089;SDS011;45149;50.976;6.120;2022-07-29T06:22:12;7.47;;;4.60;;
58089;SDS011;45149;50.976;6.120;2022-07-29T06:24:40;8.10;;;4.32;;
58089;SDS011;45149;50.976;6.120;2022-07-29T06:27:08;7.43;;;4.85;;
58089;SDS011;45149;50.976;6.120;2022-07-29T06:29:34;7.22;;;4.50;;
58089;SDS011;45149;50.976;6.120;2022-07-29T06:32:00;5.78;;;4.25;;
58089;SDS011;45149;50.976;6.120;2022-07-29T06:34:25;7.15;;;4.25;;
58089;SDS011;45149;50.976;6.120;2022-07-29T06:36:51;9.60;;;4.43;;
58089;SDS011;45149;50.976;6.120;2022-07-29T06:39:17;7.03;;;4.65;;
58089;SDS011;45149;50.976;6.120;2022-07-29T06:41:46;11.18;;;4.30;;
58089;SDS011;45149;50.976;6.120;2022-07-29T06:44:12;9.23;;;4.43;;
58089;SDS011;45149;50.976;6.120;2022-07-29T06:46:38;7.78;;;4.18;;
58089;SDS011;45149;50.976;6.120;2022-07-29T06:49:04;10.00;;;4.70;;
58089;SDS011;45149;50.976;6.120;2022-07-29T06:51:29;7.95;;;3.88;;
58089;SDS011;45149;50.976;6.120;2022-07-29T06:53:55;9.00;;;4.28;;
58089;SDS011;45149;50.976;6.120;2022-07-29T06:56:22;10.15;;;4.82;;
58089;SDS011;45149;50.976;6.120;2022-07-29T06:58:47;8.43;;;4.40;;
58089;SDS011;45149;50.976;6.120;2022-07-29T07:01:13;6.75;;;4.20;;
58089;SDS011;45149;50.976;6.120;2022-07-29T07:03:38;9.38;;;4.18;;
58089;SDS011;45149;50.976;6.120;2022-07-29T07:06:03;6.43;;;4.38;;
58089;SDS011;45149;50.976;6.120;2022-07-29T07:08:29;7.55;;;4.00;;
58089;SDS011;45149;50.976;6.120;2022-07-29T07:10:54;6.78;;;4.15;;
58089;SDS011;45149;50.976;6.120;2022-07-29T07:13:21;7.80;;;4.38;;
58089;SDS011;45149;50.976;6.120;2022-07-29T07:15:47;4.75;;;4.07;;
58089;SDS011;45149;50.976;6.120;2022-07-29T07:18:13;8.60;;;4.38;;
58089;SDS011;45149;50.976;6.120;2022-07-29T07:20:39;7.68;;;4.45;;
58089;SDS011;45149;50.976;6.120;2022-07-29T07:23:05;7.25;;;4.03;;
58089;SDS011;45149;50.976;6.120;2022-07-29T07:25:31;5.80;;;4.22;;
58089;SDS011;45149;50.976;6.120;2022-07-29T07:27:57;7.07;;;4.40;;
58089;SDS011;45149;50.976;6.120;2022-07-29T07:30:22;8.40;;;4.65;;
58089;SDS011;45149;50.976;6.120;2022-07-29T07:32:47;7.05;;;4.50;;
58089;SDS011;45149;50.976;6.120;2022-07-29T07:35:13;6.97;;;4.93;;
58089;SDS011;45149;50.976;6.120;2022-07-29T07:37:39;7.18;;;4.65;;
58089;SDS011;45149;50.976;6.120;2022-07-29T07:40:08;7.68;;;4.18;;
58089;SDS011;45149;50.976;6.120;2022-07-29T07:42:35;5.80;;;4.32;;
58089;SDS011;45149;50.976;6.120;2022-07-29T07:45:00;10.05;;;4.80;;
58089;SDS011;45149;50.976;6.120;2022-07-29T07:47:25;7.55;;;4.53;;
58089;SDS011;45149;50.976;6.120;2022-07-29T07:49:51;6.80;;;4.32;;
58089;SDS011;45149;50.976;6.120;2022-07-29T07:52:18;6.60;;;4.63;;
58089;SDS011;45149;50.976;6.120;2022-07-29T07:54:45;8.52;;;4.50;;
58089;SDS011;45149;50.976;6.120;2022-07-29T07:57:11;8.88;;;4.57;;
58089;SDS011;45149;50.976;6.120;2022-07-29T07:59:37;8.30;;;4.72;;
58089;SDS011;45149;50.976;6.120;2022-07-29T08:02:02;9.88;;;4.43;;
58089;SDS011;45149;50.976;6.120;2022-07-29T08:04:28;6.15;;;3.83;;
58089;SDS011;45149;50.976;6.120;2022-07-29T08:06:54;9.15;;;3.80;;
58089;SDS011;45149;50.976;6.120;2022-07-29T08:09:21;8.52;;;3.72;;
58089;SDS011;45149;50.976;6.120;2022-07-29T08:11:47;7.90;;;3.95;;
58089;SDS011;45149;50.976;6.120;2022-07-29T08:14:12;5.80;;;3.58;;
58089;SDS011;45149;50.976;6.120;2022-07-29T08:16:38;6.97;;;3.80;;
58089;SDS011;45149;50.976;6.120;2022-07-29T08:19:04;8.20;;;4.28;;
58089;SDS011;45149;50.976;6.120;2022-07-29T08:21:30;8.32;;;3.95;;
58089;SDS011;45149;50.976;6.120;2022-07-29T08:23:55;6.95;;;3.50;;
58089;SDS011;45149;50.976;6.120;2022-07-29T08:26:41;9.07;;;3.47;;
58089;SDS011;45149;50.976;6.120;2022-07-29T08:29:07;6.63;;;3.78;;
58089;SDS011;45149;50.976;6.120;2022-07-29T08:31:34;7.32;;;3.97;;
58089;SDS011;45149;50.976;6.120;2022-07-29T08:33:59;7.88;;;3.83;;
58089;SDS011;45149;50.976;6.120;2022-07-29T08:36:25;8.10;;;3.60;;
58089;SDS011;45149;50.976;6.120;2022-07-29T08:38:51;6.20;;;3.30;;
58089;SDS011;45149;50.976;6.120;2022-07-29T08:41:17;5.30;;;2.88;;
58089;SDS011;45149;50.976;6.120;2022-07-29T08:43:44;7.18;;;3.22;;
58089;SDS011;45149;50.976;6.120;2022-07-29T08:46:09;6.95;;;3.05;;
58089;SDS011;45149;50.976;6.120;2022-07-29T08:48:35;9.05;;;2.92;;
58089;SDS011;45149;50.976;6.120;2022-07-29T08:51:01;8.55;;;3.05;;
58089;SDS011;45149;50.976;6.120;2022-07-29T08:53:27;5.65;;;3.22;;
58089;SDS011;45149;50.976;6.120;2022-07-29T08:55:53;7.00;;;3.20;;
58089;SDS011;45149;50.976;6.120;2022-07-29T08:58:19;6.57;;;3.40;;
58089;SDS011;45149;50.976;6.120;2022-07-29T09:00:49;6.60;;;3.45;;
58089;SDS011;45149;50.976;6.120;2022-07-29T09:03:17;7.65;;;3.85;;
58089;SDS011;45149;50.976;6.120;2022-07-29T09:05:45;8.95;;;3.80;;
58089;SDS011;45149;50.976;6.120;2022-07-29T09:08:12;7.18;;;4.20;;
58089;SDS011;45149;50.976;6.120;2022-07-29T09:10:38;7.32;;;4.10;;
58089;SDS011;45149;50.976;6.120;2022-07-29T09:13:04;8.48;;;4.25;;
58089;SDS011;45149;50.976;6.120;2022-07-29T09:15:29;8.82;;;4.90;;
58089;SDS011;45149;50.976;6.120;2022-07-29T09:17:55;8.00;;;4.35;;
58089;SDS011;45149;50.976;6.120;2022-07-29T09:20:23;7.97;;;4.30;;
58089;SDS011;45149;50.976;6.120;2022-07-29T09:22:49;8.80;;;4.75;;
58089;SDS011;45149;50.976;6.120;2022-07-29T09:25:33;7.85;;;4.93;;
58089;SDS011;45149;50.976;6.120;2022-07-29T09:28:10;8.48;;;5.47;;
58089;SDS011;45149;50.976;6.120;2022-07-29T09:30:49;11.10;;;6.28;;
58089;SDS011;45149;50.976;6.120;2022-07-29T09:33:16;9.20;;;6.30;;
58089;SDS011;45149;50.976;6.120;2022-07-29T09:35:41;10.75;;;6.30;;
58089;SDS011;45149;50.976;6.120;2022-07-29T09:38:10;8.45;;;6.10;;
58089;SDS011;45149;50.976;6.120;2022-07-29T09:40:37;6.80;;;5.65;;
58089;SDS011;45149;50.976;6.120;2022-07-29T09:43:10;8.85;;;6.65;;
58089;SDS011;45149;50.976;6.120;2022-07-29T09:45:36;9.52;;;6.45;;
58089;SDS011;45149;50.976;6.120;2022-07-29T09:48:15;10.18;;;6.53;;
58089;SDS011;45149;50.976;6.120;2022-07-29T09:50:43;8.85;;;6.78;;
58089;SDS011;45149;50.976;6.120;2022-07-29T09:53:10;9.05;;;6.60;;
58089;SDS011;45149;50.976;6.120;2022-07-29T09:55:46;12.23;;;6.70;;
58089;SDS011;45149;50.976;6.120;2022-07-29T09:58:19;12.48;;;7.00;;
58089;SDS011;45149;50.976;6.120;2022-07-29T10:00:47;9.40;;;6.80;;
58089;SDS011;45149;50.976;6.120;2022-07-29T10:03:15;10.00;;;6.68;;
58089;SDS011;45149;50.976;6.120;2022-07-29T10:05:41;10.82;;;7.32;;
58089;SDS011;45149;50.976;6.120;2022-07-29T10:08:08;8.30;;;6.97;;
58089;SDS011;45149;50.976;6.120;2022-07-29T10:10:36;9.63;;;6.55;;
58089;SDS011;45149;50.976;6.120;2022-07-29T10:13:07;8.75;;;5.65;;
58089;SDS011;45149;50.976;6.120;2022-07-29T10:15:35;9.27;;;6.10;;
58089;SDS011;45149;50.976;6.120;2022-07-29T10:18:04;6.65;;;5.53;;
58089;SDS011;45149;50.976;6.120;2022-07-29T10:20:29;6.32;;;5.13;;
58089;SDS011;45149;50.976;6.120;2022-07-29T10:22:55;7.88;;;5.63;;
58089;SDS011;45149;50.976;6.120;2022-07-29T10:25:21;9.27;;;6.05;;
58089;SDS011;45149;50.976;6.120;2022-07-29T10:27:47;8.68;;;5.97;;
58089;SDS011;45149;50.976;6.120;2022-07-29T10:30:15;8.43;;;5.20;;
58089;SDS011;45149;50.976;6.120;2022-07-29T10:32:51;8.38;;;4.82;;
58089;SDS011;45149;50.976;6.120;2022-07-29T10:35:39;8.27;;;4.55;;
58089;SDS011;45149;50.976;6.120;2022-07-29T10:46:26;6.35;;;4.78;;
58089;SDS011;45149;50.976;6.120;2022-07-29T10:49:08;6.57;;;4.72;;
58089;SDS011;45149;50.976;6.120;2022-07-29T10:59:43;8.23;;;5.07;;
58089;SDS011;45149;50.976;6.120;2022-07-29T11:02:55;7.95;;;4.70;;
58089;SDS011;45149;50.976;6.120;2022-07-29T11:05:11;7.57;;;4.65;;
58089;SDS011;45149;50.976;6.120;2022-07-29T11:10:39;8.20;;;4.45;;
58089;SDS011;45149;50.976;6.120;2022-07-29T11:13:04;9.23;;;4.63;;
58089;SDS011;45149;50.976;6.120;2022-07-29T11:15:32;6.55;;;4.55;;
58089;SDS011;45149;50.976;6.120;2022-07-29T11:18:18;7.32;;;4.10;;
58089;SDS011;45149;50.976;6.120;2022-07-29T11:20:45;8.48;;;4.65;;
58089;SDS011;45149;50.976;6.120;2022-07-29T11:31:34;5.32;;;4.10;;
58089;SDS011;45149;50.976;6.120;2022-07-29T11:47:36;6.07;;;4.13;;
58089;SDS011;45149;50.976;6.120;2022-07-29T11:52:34;4.85;;;4.13;;
58089;SDS011;45149;50.976;6.120;2022-07-29T11:55:15;6.05;;;3.45;;
58089;SDS011;45149;50.976;6.120;2022-07-29T11:57:45;8.05;;;4.28;;
58089;SDS011;45149;50.976;6.120;2022-07-29T12:00:12;8.98;;;4.28;;
58089;SDS011;45149;50.976;6.120;2022-07-29T12:02:47;7.03;;;4.53;;
58089;SDS011;45149;50.976;6.120;2022-07-29T12:05:12;4.95;;;3.60;;
58089;SDS011;45149;50.976;6.120;2022-07-29T12:07:38;4.68;;;3.22;;
58089;SDS011;45149;50.976;6.120;2022-07-29T12:10:05;5.10;;;2.90;;
58089;SDS011;45149;50.976;6.120;2022-07-29T12:12:31;5.03;;;3.42;;
58089;SDS011;45149;50.976;6.120;2022-07-29T12:14:57;5.28;;;3.65;;
58089;SDS011;45149;50.976;6.120;2022-07-29T12:19:59;7.90;;;4.00;;
58089;SDS011;45149;50.976;6.120;2022-07-29T12:22:30;6.85;;;4.07;;
58089;SDS011;45149;50.976;6.120;2022-07-29T12:25:03;5.30;;;4.13;;
58089;SDS011;45149;50.976;6.120;2022-07-29T12:27:37;9.52;;;3.70;;
58089;SDS011;45149;50.976;6.120;2022-07-29T12:30:06;5.40;;;2.88;;
58089;SDS011;45149;50.976;6.120;2022-07-29T12:32:34;4.35;;;2.45;;
58089;SDS011;45149;50.976;6.120;2022-07-29T12:35:19;5.55;;;2.90;;
58089;SDS011;45149;50.976;6.120;2022-07-29T12:37:46;5.50;;;3.17;;
58089;SDS011;45149;50.976;6.120;2022-07-29T12:40:17;6.97;;;2.75;;
58089;SDS011;45149;50.976;6.120;2022-07-29T12:45:34;3.28;;;1.95;;
58089;SDS011;45149;50.976;6.120;2022-07-29T12:48:01;3.78;;;2.40;;
58089;SDS011;45149;50.976;6.120;2022-07-29T12:50:26;3.08;;;1.95;;
58089;SDS011;45149;50.976;6.120;2022-07-29T12:52:51;3.05;;;2.05;;
58089;SDS011;45149;50.976;6.120;2022-07-29T12:58:05;3.90;;;1.90;;
58089;SDS011;45149;50.976;6.120;2022-07-29T13:00:30;3.17;;;2.40;;
58089;SDS011;45149;50.976;6.120;2022-07-29T13:02:57;3.72;;;2.22;;
58089;SDS011;45149;50.976;6.120;2022-07-29T13:05:23;5.53;;;2.20;;
58089;SDS011;45149;50.976;6.120;2022-07-29T13:07:49;3.50;;;2.05;;
58089;SDS011;45149;50.976;6.120;2022-07-29T13:10:18;4.03;;;2.00;;
58089;SDS011;45149;50.976;6.120;2022-07-29T13:15:38;3.58;;;1.90;;
58089;SDS011;45149;50.976;6.120;2022-07-29T13:18:06;5.78;;;1.90;;
58089;SDS011;45149;50.976;6.120;2022-07-29T13:20:51;2.63;;;1.88;;
58089;SDS011;45149;50.976;6.120;2022-07-29T13:23:17;2.45;;;1.80;;
58089;SDS011;45149;50.976;6.120;2022-07-29T13:25:42;2.13;;;1.60;;
58089;SDS011;45149;50.976;6.120;2022-07-29T13:28:08;2.17;;;1.67;;
58089;SDS011;45149;50.976;6.120;2022-07-29T13:30:33;2.83;;;1.90;;
58089;SDS011;45149;50.976;6.120;2022-07-29T13:32:59;2.13;;;1.60;;
58089;SDS011;45149;50.976;6.120;2022-07-29T13:35:24;4.30;;;1.85;;
58089;SDS011;45149;50.976;6.120;2022-07-29T13:37:50;4.82;;;4.18;;
58089;SDS011;45149;50.976;6.120;2022-07-29T13:40:15;5.53;;;3.70;;
58089;SDS011;45149;50.976;6.120;2022-07-29T13:42:40;3.25;;;2.10;;
58089;SDS011;45149;50.976;6.120;2022-07-29T13:45:06;5.85;;;2.42;;
58089;SDS011;45149;50.976;6.120;2022-07-29T13:47:33;4.85;;;3.30;;
58089;SDS011;45149;50.976;6.120;2022-07-29T13:50:01;2.88;;;2.28;;
58089;SDS011;45149;50.976;6.120;2022-07-29T13:52:28;11.18;;;8.30;;
58089;SDS011;45149;50.976;6.120;2022-07-29T13:54:54;19.20;;;16.90;;
58089;SDS011;45149;50.976;6.120;2022-07-29T13:57:19;3.35;;;2.83;;
58089;SDS011;45149;50.976;6.120;2022-07-29T13:59:44;2.88;;;2.20;;
58089;SDS011;45149;50.976;6.120;2022-07-29T14:02:10;6.05;;;4.25;;
58089;SDS011;45149;50.976;6.120;2022-07-29T14:04:37;5.28;;;2.92;;
58089;SDS011;45149;50.976;6.120;2022-07-29T14:07:03;4.95;;;4.07;;
58089;SDS011;45149;50.976;6.120;2022-07-29T14:09:29;3.55;;;2.50;;
58089;SDS011;45149;50.976;6.120;2022-07-29T14:11:54;5.18;;;2.75;;
58089;SDS011;45149;50.976;6.120;2022-07-29T14:14:20;6.55;;;4.25;;
58089;SDS011;45149;50.976;6.120;2022-07-29T14:16:46;4.10;;;2.35;;
58089;SDS011;45149;50.976;6.120;2022-07-29T14:19:11;3.58;;;2.53;;
58089;SDS011;45149;50.976;6.120;2022-07-29T14:21:37;6.38;;;4.10;;
58089;SDS011;45149;50.976;6.120;2022-07-29T14:24:03;6.07;;;2.80;;
58089;SDS011;45149;50.976;6.120;2022-07-29T14:26:29;4.63;;;3.15;;
58089;SDS011;45149;50.976;6.120;2022-07-29T14:28:54;5.18;;;3.83;;
58089;SDS011;45149;50.976;6.120;2022-07-29T14:31:19;5.97;;;3.17;;
58089;SDS011;45149;50.976;6.120;2022-07-29T14:33:45;5.15;;;3.55;;
58089;SDS011;45149;50.976;6.120;2022-07-29T14:36:10;4.20;;;3.45;;
58089;SDS011;45149;50.976;6.120;2022-07-29T14:38:36;4.50;;;3.35;;
58089;SDS011;45149;50.976;6.120;2022-07-29T14:41:02;4.57;;;2.88;;
58089;SDS011;45149;50.976;6.120;2022-07-29T14:43:27;5.13;;;3.13;;
58089;SDS011;45149;50.976;6.120;2022-07-29T14:45:53;7.53;;;5.38;;
58089;SDS011;45149;50.976;6.120;2022-07-29T14:48:18;9.50;;;7.55;;
58089;SDS011;45149;50.976;6.120;2022-07-29T14:50:44;6.95;;;5.55;;
58089;SDS011;45149;50.976;6.120;2022-07-29T14:53:09;7.15;;;5.07;;
58089;SDS011;45149;50.976;6.120;2022-07-29T14:55:36;5.63;;;3.53;;
58089;SDS011;45149;50.976;6.120;2022-07-29T14:58:02;4.60;;;4.03;;
58089;SDS011;45149;50.976;6.120;2022-07-29T15:00:28;7.32;;;5.15;;
58089;SDS011;45149;50.976;6.120;2022-07-29T15:02:57;4.45;;;3.70;;
58089;SDS011;45149;50.976;6.120;2022-07-29T15:05:23;8.40;;;6.70;;
58089;SDS011;45149;50.976;6.120;2022-07-29T15:07:48;13.25;;;11.85;;
58089;SDS011;45149;50.976;6.120;2022-07-29T15:10:14;3.58;;;2.90;;
58089;SDS011;45149;50.976;6.120;2022-07-29T15:12:40;5.18;;;3.65;;
58089;SDS011;45149;50.976;6.120;2022-07-29T15:15:05;6.07;;;2.88;;
58089;SDS011;45149;50.976;6.120;2022-07-29T15:17:32;4.25;;;2.67;;
58089;SDS011;45149;50.976;6.120;2022-07-29T15:19:57;3.97;;;2.78;;
58089;SDS011;45149;50.976;6.120;2022-07-29T15:22:23;5.18;;;2.80;;
58089;SDS011;45149;50.976;6.120;2022-07-29T15:24:48;4.82;;;2.95;;
58089;SDS011;45149;50.976;6.120;2022-07-29T15:27:13;5.47;;;2.63;;
58089;SDS011;45149;50.976;6.120;2022-07-29T15:29:41;4.53;;;3.08;;
58089;SDS011;45149;50.976;6.120;2022-07-29T15:32:07;3.90;;;2.78;;
58089;SDS011;45149;50.976;6.120;2022-07-29T15:34:33;6.10;;;3.38;;
58089;SDS011;45149;50.976;6.120;2022-07-29T15:36:59;5.82;;;3.00;;
58089;SDS011;45149;50.976;6.120;2022-07-29T15:39:25;5.35;;;3.30;;
58089;SDS011;45149;50.976;6.120;2022-07-29T15:41:50;5.65;;;3.30;;
58089;SDS011;45149;50.976;6.120;2022-07-29T15:44:16;4.00;;;3.30;;
58089;SDS011;45149;50.976;6.120;2022-07-29T15:46:42;4.32;;;3.15;;
58089;SDS011;45149;50.976;6.120;2022-07-29T15:49:25;5.30;;;3.10;;
58089;SDS011;45149;50.976;6.120;2022-07-29T15:52:01;4.90;;;3.00;;
58089;SDS011;45149;50.976;6.120;2022-07-29T15:54:28;3.20;;;2.90;;